sensor_id;sensor_type;location;lat;lon;timestamp;temperature;humidity
13052;DHT22;6592;47.484;9.726;2023-07-29T00:00:18;18.30;99.90
13052;DHT22;6592;47.484;9.726;2023-07-29T00:02:47;18.20;99.90
13052;DHT22;6592;47.484;9.726;2023-07-29T00:05:18;18.20;99.90
13052;DHT22;6592;47.484;9.726;2023-07-29T00:07:47;18.10;99.90
13052;DHT22;6592;47.484;9.726;2023-07-29T00:10:16;18.10;99.90
13052;DHT22;6592;47.484;9.726;2023-07-29T00:12:45;18.10;99.90
13052;DHT22;6592;47.484;9.726;2023-07-29T00:15:13;18.00;99.90
13052;DHT22;6592;47.484;9.726;2023-07-29T00:17:42;18.00;99.90
13052;DHT22;6592;47.484;9.726;2023-07-29T00:20:11;18.10;99.90
13052;DHT22;6592;47.484;9.726;2023-07-29T00:22:42;18.10;99.90
13052;DHT22;6592;47.484;9.726;2023-07-29T00:25:11;18.10;99.90
13052;DHT22;6592;47.484;9.726;2023-07-29T00:27:40;18.10;99.90
13052;DHT22;6592;47.484;9.726;2023-07-29T00:30:09;18.10;99.90
13052;DHT22;6592;47.484;9.726;2023-07-29T00:32:38;18.20;99.90
13052;DHT22;6592;47.484;9.726;2023-07-29T00:35:08;18.20;99.90
13052;DHT22;6592;47.484;9.726;2023-07-29T00:37:37;18.30;99.90
13052;DHT22;6592;47.484;9.726;2023-07-29T00:40:15;18.30;99.90
13052;DHT22;6592;47.484;9.726;2023-07-29T00:42:44;18.30;99.90
13052;DHT22;6592;47.484;9.726;2023-07-29T00:45:13;18.30;99.90
13052;DHT22;6592;47.484;9.726;2023-07-29T00:47:42;18.30;99.90
13052;DHT22;6592;47.484;9.726;2023-07-29T00:50:12;18.30;99.90
13052;DHT22;6592;47.484;9.726;2023-07-29T00:52:41;18.30;99.90
13052;DHT22;6592;47.484;9.726;2023-07-29T00:55:12;18.30;99.90
13052;DHT22;6592;47.484;9.726;2023-07-29T00:57:41;18.20;99.90
13052;DHT22;6592;47.484;9.726;2023-07-29T01:00:15;18.20;99.90
13052;DHT22;6592;47.484;9.726;2023-07-29T01:02:44;18.20;99.90
13052;DHT22;6592;47.484;9.726;2023-07-29T01:05:15;18.20;99.90
13052;DHT22;6592;47.484;9.726;2023-07-29T01:07:48;18.20;99.90
13052;DHT22;6592;47.484;9.726;2023-07-29T01:10:30;18.10;99.90
13052;DHT22;6592;47.484;9.726;2023-07-29T01:13:06;18.10;99.90
13052;DHT22;6592;47.484;9.726;2023-07-29T01:15:39;18.10;99.90
13052;DHT22;6592;47.484;9.726;2023-07-29T01:18:15;18.00;99.90
13052;DHT22;6592;47.484;9.726;2023-07-29T01:20:48;18.00;99.90
13052;DHT22;6592;47.484;9.726;2023-07-29T01:23:24;18.00;99.90
13052;DHT22;6592;47.484;9.726;2023-07-29T01:25:53;18.00;99.90
13052;DHT22;6592;47.484;9.726;2023-07-29T01:28:23;17.90;99.90
13052;DHT22;6592;47.484;9.726;2023-07-29T01:30:56;17.90;99.90
13052;DHT22;6592;47.484;9.726;2023-07-29T01:33:26;17.90;99.90
13052;DHT22;6592;47.484;9.726;2023-07-29T01:36:01;17.90;99.90
13052;DHT22;6592;47.484;9.726;2023-07-29T01:38:35;17.90;99.90
13052;DHT22;6592;47.484;9.726;2023-07-29T01:41:08;17.90;99.90
13052;DHT22;6592;47.484;9.726;2023-07-29T01:43:37;17.90;99.90
13052;DHT22;6592;47.484;9.726;2023-07-29T01:46:11;17.90;99.90
13052;DHT22;6592;47.484;9.726;2023-07-29T01:48:40;17.80;99.90
13052;DHT22;6592;47.484;9.726;2023-07-29T01:51:12;17.80;99.90
13052;DHT22;6592;47.484;9.726;2023-07-29T01:53:43;17.70;99.90
13052;DHT22;6592;47.484;9.726;2023-07-29T01:56:12;17.70;99.90
13052;DHT22;6592;47.484;9.726;2023-07-29T01:58:41;17.70;99.90
13052;DHT22;6592;47.484;9.726;2023-07-29T02:01:09;17.70;99.90
13052;DHT22;6592;47.484;9.726;2023-07-29T02:03:38;17.70;99.90
13052;DHT22;6592;47.484;9.726;2023-07-29T02:06:07;17.70;99.90
13052;DHT22;6592;47.484;9.726;2023-07-29T02:08:36;17.80;99.90
13052;DHT22;6592;47.484;9.726;2023-07-29T02:11:09;17.80;99.90
13052;DHT22;6592;47.484;9.726;2023-07-29T02:13:38;17.80;99.90
13052;DHT22;6592;47.484;9.726;2023-07-29T02:16:11;17.90;99.90
13052;DHT22;6592;47.484;9.726;2023-07-29T02:18:44;17.90;99.90
13052;DHT22;6592;47.484;9.726;2023-07-29T02:21:13;17.90;99.90
13052;DHT22;6592;47.484;9.726;2023-07-29T02:23:41;17.90;99.90
13052;DHT22;6592;47.484;9.726;2023-07-29T02:26:12;17.80;99.90
13052;DHT22;6592;47.484;9.726;2023-07-29T02:28:40;17.70;99.90
13052;DHT22;6592;47.484;9.726;2023-07-29T02:31:11;17.70;99.90
13052;DHT22;6592;47.484;9.726;2023-07-29T02:33:41;17.70;99.90
13052;DHT22;6592;47.484;9.726;2023-07-29T02:36:11;17.80;99.90
13052;DHT22;6592;47.484;9.726;2023-07-29T02:38:41;17.90;99.90
13052;DHT22;6592;47.484;9.726;2023-07-29T02:41:11;17.90;99.90
13052;DHT22;6592;47.484;9.726;2023-07-29T02:43:42;17.90;99.90
13052;DHT22;6592;47.484;9.726;2023-07-29T02:46:11;18.00;99.90
13052;DHT22;6592;47.484;9.726;2023-07-29T02:48:41;18.00;99.90
13052;DHT22;6592;47.484;9.726;2023-07-29T02:51:10;18.00;99.90
13052;DHT22;6592;47.484;9.726;2023-07-29T02:53:38;18.10;99.90
13052;DHT22;6592;47.484;9.726;2023-07-29T02:56:07;18.10;99.90
13052;DHT22;6592;47.484;9.726;2023-07-29T02:58:38;18.00;99.90
13052;DHT22;6592;47.484;9.726;2023-07-29T03:01:07;17.80;99.90
13052;DHT22;6592;47.484;9.726;2023-07-29T03:03:36;17.60;99.90
13052;DHT22;6592;47.484;9.726;2023-07-29T03:06:05;17.50;99.90
13052;DHT22;6592;47.484;9.726;2023-07-29T03:08:35;17.40;99.90
13052;DHT22;6592;47.484;9.726;2023-07-29T03:11:06;17.40;99.90
13052;DHT22;6592;47.484;9.726;2023-07-29T03:13:35;17.40;99.90
13052;DHT22;6592;47.484;9.726;2023-07-29T03:16:10;17.40;99.90
13052;DHT22;6592;47.484;9.726;2023-07-29T03:18:39;17.40;99.90
13052;DHT22;6592;47.484;9.726;2023-07-29T03:21:09;17.40;99.90
13052;DHT22;6592;47.484;9.726;2023-07-29T03:23:38;17.50;99.90
13052;DHT22;6592;47.484;9.726;2023-07-29T03:26:06;17.50;99.90
13052;DHT22;6592;47.484;9.726;2023-07-29T03:28:38;17.50;99.90
13052;DHT22;6592;47.484;9.726;2023-07-29T03:31:10;17.50;99.90
13052;DHT22;6592;47.484;9.726;2023-07-29T03:33:39;17.50;99.90
13052;DHT22;6592;47.484;9.726;2023-07-29T03:36:08;17.50;99.90
13052;DHT22;6592;47.484;9.726;2023-07-29T03:38:36;17.60;99.90
13052;DHT22;6592;47.484;9.726;2023-07-29T03:41:08;17.60;99.90
13052;DHT22;6592;47.484;9.726;2023-07-29T03:43:37;17.50;99.90
13052;DHT22;6592;47.484;9.726;2023-07-29T03:46:05;17.50;99.90
13052;DHT22;6592;47.484;9.726;2023-07-29T03:48:39;17.50;99.90
13052;DHT22;6592;47.484;9.726;2023-07-29T03:51:08;17.50;99.90
13052;DHT22;6592;47.484;9.726;2023-07-29T03:53:37;17.50;99.90
13052;DHT22;6592;47.484;9.726;2023-07-29T03:56:05;17.60;99.90
13052;DHT22;6592;47.484;9.726;2023-07-29T03:58:35;17.60;99.90
13052;DHT22;6592;47.484;9.726;2023-07-29T04:01:04;17.60;99.90
13052;DHT22;6592;47.484;9.726;2023-07-29T04:03:33;17.60;99.90
13052;DHT22;6592;47.484;9.726;2023-07-29T04:06:04;17.70;99.90
13052;DHT22;6592;47.484;9.726;2023-07-29T04:08:32;17.70;99.90
13052;DHT22;6592;47.484;9.726;2023-07-29T04:11:01;17.60;99.90
13052;DHT22;6592;47.484;9.726;2023-07-29T04:13:30;17.60;99.90
13052;DHT22;6592;47.484;9.726;2023-07-29T04:15:59;17.70;99.90
13052;DHT22;6592;47.484;9.726;2023-07-29T04:18:27;17.60;99.90
13052;DHT22;6592;47.484;9.726;2023-07-29T04:20:56;17.70;99.90
13052;DHT22;6592;47.484;9.726;2023-07-29T04:23:27;17.80;99.90
13052;DHT22;6592;47.484;9.726;2023-07-29T04:25:55;17.80;99.90
13052;DHT22;6592;47.484;9.726;2023-07-29T04:28:24;17.70;99.90
13052;DHT22;6592;47.484;9.726;2023-07-29T04:30:53;17.80;99.90
13052;DHT22;6592;47.484;9.726;2023-07-29T04:33:22;17.80;99.90
13052;DHT22;6592;47.484;9.726;2023-07-29T04:35:51;17.80;99.90
13052;DHT22;6592;47.484;9.726;2023-07-29T04:38:20;17.80;99.90
13052;DHT22;6592;47.484;9.726;2023-07-29T04:40:50;17.80;99.90
13052;DHT22;6592;47.484;9.726;2023-07-29T04:43:19;17.90;99.90
13052;DHT22;6592;47.484;9.726;2023-07-29T04:45:48;17.90;99.90
13052;DHT22;6592;47.484;9.726;2023-07-29T04:48:17;17.90;99.90
13052;DHT22;6592;47.484;9.726;2023-07-29T04:50:46;17.90;99.90
13052;DHT22;6592;47.484;9.726;2023-07-29T04:53:16;17.90;99.90
13052;DHT22;6592;47.484;9.726;2023-07-29T04:55:44;17.90;99.90
13052;DHT22;6592;47.484;9.726;2023-07-29T04:58:15;17.90;99.90
13052;DHT22;6592;47.484;9.726;2023-07-29T05:00:46;17.90;99.90
13052;DHT22;6592;47.484;9.726;2023-07-29T05:03:16;18.10;99.90
13052;DHT22;6592;47.484;9.726;2023-07-29T05:05:46;18.10;99.90
13052;DHT22;6592;47.484;9.726;2023-07-29T05:08:15;18.20;99.90
13052;DHT22;6592;47.484;9.726;2023-07-29T05:10:43;18.10;99.90
13052;DHT22;6592;47.484;9.726;2023-07-29T05:13:15;18.10;99.90
13052;DHT22;6592;47.484;9.726;2023-07-29T05:15:44;18.10;99.90
13052;DHT22;6592;47.484;9.726;2023-07-29T05:18:13;18.10;99.90
13052;DHT22;6592;47.484;9.726;2023-07-29T05:20:43;18.10;99.90
13052;DHT22;6592;47.484;9.726;2023-07-29T05:23:12;18.10;99.90
13052;DHT22;6592;47.484;9.726;2023-07-29T05:25:41;18.20;99.90
13052;DHT22;6592;47.484;9.726;2023-07-29T05:28:10;18.30;99.90
13052;DHT22;6592;47.484;9.726;2023-07-29T05:30:41;18.40;99.90
13052;DHT22;6592;47.484;9.726;2023-07-29T05:33:11;18.40;99.90
13052;DHT22;6592;47.484;9.726;2023-07-29T05:35:42;18.50;99.90
13052;DHT22;6592;47.484;9.726;2023-07-29T05:38:13;18.70;99.90
13052;DHT22;6592;47.484;9.726;2023-07-29T05:40:43;18.70;99.90
13052;DHT22;6592;47.484;9.726;2023-07-29T05:43:12;18.70;99.90
13052;DHT22;6592;47.484;9.726;2023-07-29T05:45:43;18.60;99.90
13052;DHT22;6592;47.484;9.726;2023-07-29T05:48:12;18.70;99.90
13052;DHT22;6592;47.484;9.726;2023-07-29T05:50:41;18.70;99.90
13052;DHT22;6592;47.484;9.726;2023-07-29T05:53:10;18.70;99.90
13052;DHT22;6592;47.484;9.726;2023-07-29T05:55:38;18.80;99.90
13052;DHT22;6592;47.484;9.726;2023-07-29T05:58:07;19.00;99.90
13052;DHT22;6592;47.484;9.726;2023-07-29T06:00:36;19.10;99.90
13052;DHT22;6592;47.484;9.726;2023-07-29T06:03:06;19.20;99.90
13052;DHT22;6592;47.484;9.726;2023-07-29T06:05:35;19.20;99.90
13052;DHT22;6592;47.484;9.726;2023-07-29T06:08:03;19.30;99.90
13052;DHT22;6592;47.484;9.726;2023-07-29T06:10:33;19.40;99.90
13052;DHT22;6592;47.484;9.726;2023-07-29T06:13:03;19.60;99.90
13052;DHT22;6592;47.484;9.726;2023-07-29T06:15:33;20.00;99.90
13052;DHT22;6592;47.484;9.726;2023-07-29T06:18:02;20.50;99.90
13052;DHT22;6592;47.484;9.726;2023-07-29T06:20:34;20.50;99.90
13052;DHT22;6592;47.484;9.726;2023-07-29T06:23:04;20.40;99.90
13052;DHT22;6592;47.484;9.726;2023-07-29T06:25:32;20.20;99.90
13052;DHT22;6592;47.484;9.726;2023-07-29T06:28:01;20.10;99.90
13052;DHT22;6592;47.484;9.726;2023-07-29T06:30:30;19.90;99.90
13052;DHT22;6592;47.484;9.726;2023-07-29T06:32:59;19.70;99.90
13052;DHT22;6592;47.484;9.726;2023-07-29T06:35:30;19.60;99.90
13052;DHT22;6592;47.484;9.726;2023-07-29T06:38:00;19.40;99.90
13052;DHT22;6592;47.484;9.726;2023-07-29T06:40:29;19.30;99.90
13052;DHT22;6592;47.484;9.726;2023-07-29T06:42:58;19.10;99.90
13052;DHT22;6592;47.484;9.726;2023-07-29T06:45:31;18.90;99.90
13052;DHT22;6592;47.484;9.726;2023-07-29T06:48:00;18.70;99.90
13052;DHT22;6592;47.484;9.726;2023-07-29T06:50:30;18.70;99.90
13052;DHT22;6592;47.484;9.726;2023-07-29T06:53:03;18.70;99.90
13052;DHT22;6592;47.484;9.726;2023-07-29T06:55:31;18.60;99.90
13052;DHT22;6592;47.484;9.726;2023-07-29T06:58:01;18.50;99.90
13052;DHT22;6592;47.484;9.726;2023-07-29T07:00:30;18.30;99.90
13052;DHT22;6592;47.484;9.726;2023-07-29T07:02:59;18.20;99.90
13052;DHT22;6592;47.484;9.726;2023-07-29T07:05:28;18.10;99.90
13052;DHT22;6592;47.484;9.726;2023-07-29T07:07:57;18.10;99.90
13052;DHT22;6592;47.484;9.726;2023-07-29T07:10:27;18.10;99.90
13052;DHT22;6592;47.484;9.726;2023-07-29T07:12:56;18.20;99.90
13052;DHT22;6592;47.484;9.726;2023-07-29T07:15:24;18.30;99.90
13052;DHT22;6592;47.484;9.726;2023-07-29T07:17:53;18.40;99.90
13052;DHT22;6592;47.484;9.726;2023-07-29T07:20:21;18.70;99.90
13052;DHT22;6592;47.484;9.726;2023-07-29T07:22:50;19.30;99.90
13052;DHT22;6592;47.484;9.726;2023-07-29T07:25:19;19.80;99.90
13052;DHT22;6592;47.484;9.726;2023-07-29T07:27:49;20.30;99.90
13052;DHT22;6592;47.484;9.726;2023-07-29T07:30:18;20.50;99.90
13052;DHT22;6592;47.484;9.726;2023-07-29T07:32:47;20.40;99.90
13052;DHT22;6592;47.484;9.726;2023-07-29T07:35:17;20.30;99.90
13052;DHT22;6592;47.484;9.726;2023-07-29T07:37:47;20.00;99.90
13052;DHT22;6592;47.484;9.726;2023-07-29T07:40:16;19.70;99.90
13052;DHT22;6592;47.484;9.726;2023-07-29T07:42:45;19.70;99.90
13052;DHT22;6592;47.484;9.726;2023-07-29T07:45:16;19.60;99.90
13052;DHT22;6592;47.484;9.726;2023-07-29T07:47:46;19.70;99.90
13052;DHT22;6592;47.484;9.726;2023-07-29T07:50:15;19.90;99.90
13052;DHT22;6592;47.484;9.726;2023-07-29T07:52:44;20.00;99.90
13052;DHT22;6592;47.484;9.726;2023-07-29T07:55:13;20.10;99.90
13052;DHT22;6592;47.484;9.726;2023-07-29T07:57:42;20.30;99.90
13052;DHT22;6592;47.484;9.726;2023-07-29T08:00:12;20.50;99.90
13052;DHT22;6592;47.484;9.726;2023-07-29T08:02:44;20.70;99.90
13052;DHT22;6592;47.484;9.726;2023-07-29T08:05:14;20.90;99.90
13052;DHT22;6592;47.484;9.726;2023-07-29T08:07:43;20.90;99.90
13052;DHT22;6592;47.484;9.726;2023-07-29T08:10:13;20.90;99.90
13052;DHT22;6592;47.484;9.726;2023-07-29T08:12:44;20.90;99.90
13052;DHT22;6592;47.484;9.726;2023-07-29T08:15:13;20.90;99.90
13052;DHT22;6592;47.484;9.726;2023-07-29T08:17:45;21.10;99.90
13052;DHT22;6592;47.484;9.726;2023-07-29T08:20:14;21.30;99.90
13052;DHT22;6592;47.484;9.726;2023-07-29T08:22:43;21.50;99.90
13052;DHT22;6592;47.484;9.726;2023-07-29T08:25:12;21.90;99.90
13052;DHT22;6592;47.484;9.726;2023-07-29T08:27:41;22.50;99.90
13052;DHT22;6592;47.484;9.726;2023-07-29T08:30:11;23.50;99.90
13052;DHT22;6592;47.484;9.726;2023-07-29T08:32:40;24.70;99.90
13052;DHT22;6592;47.484;9.726;2023-07-29T08:35:11;25.20;99.90
13052;DHT22;6592;47.484;9.726;2023-07-29T08:37:40;25.80;99.90
13052;DHT22;6592;47.484;9.726;2023-07-29T08:40:09;25.80;99.90
13052;DHT22;6592;47.484;9.726;2023-07-29T08:42:39;25.80;99.90
13052;DHT22;6592;47.484;9.726;2023-07-29T08:45:09;26.10;99.90
13052;DHT22;6592;47.484;9.726;2023-07-29T08:47:39;26.40;99.90
13052;DHT22;6592;47.484;9.726;2023-07-29T08:50:10;26.60;99.90
13052;DHT22;6592;47.484;9.726;2023-07-29T08:52:41;27.00;99.90
13052;DHT22;6592;47.484;9.726;2023-07-29T08:55:11;27.40;99.90
13052;DHT22;6592;47.484;9.726;2023-07-29T08:57:40;27.30;99.90
13052;DHT22;6592;47.484;9.726;2023-07-29T09:00:11;27.60;99.90
13052;DHT22;6592;47.484;9.726;2023-07-29T09:02:47;27.60;99.90
13052;DHT22;6592;47.484;9.726;2023-07-29T09:05:20;27.20;99.90
13052;DHT22;6592;47.484;9.726;2023-07-29T09:07:50;26.80;99.90
13052;DHT22;6592;47.484;9.726;2023-07-29T09:10:22;26.60;99.90
13052;DHT22;6592;47.484;9.726;2023-07-29T09:12:52;26.80;99.90
13052;DHT22;6592;47.484;9.726;2023-07-29T09:15:28;26.80;99.90
13052;DHT22;6592;47.484;9.726;2023-07-29T09:17:58;27.10;99.90
13052;DHT22;6592;47.484;9.726;2023-07-29T09:20:30;27.40;99.90
13052;DHT22;6592;47.484;9.726;2023-07-29T09:23:03;27.60;99.90
13052;DHT22;6592;47.484;9.726;2023-07-29T09:25:32;28.60;99.90
13052;DHT22;6592;47.484;9.726;2023-07-29T09:28:07;29.50;99.90
13052;DHT22;6592;47.484;9.726;2023-07-29T09:30:37;29.60;99.90
13052;DHT22;6592;47.484;9.726;2023-07-29T09:33:07;29.50;99.90
13052;DHT22;6592;47.484;9.726;2023-07-29T09:35:38;29.20;99.90
13052;DHT22;6592;47.484;9.726;2023-07-29T09:38:07;28.40;99.90
13052;DHT22;6592;47.484;9.726;2023-07-29T09:40:36;28.00;99.90
13052;DHT22;6592;47.484;9.726;2023-07-29T09:43:06;28.20;99.90
13052;DHT22;6592;47.484;9.726;2023-07-29T09:45:36;28.30;99.90
13052;DHT22;6592;47.484;9.726;2023-07-29T09:48:06;28.30;99.90
13052;DHT22;6592;47.484;9.726;2023-07-29T09:50:40;28.20;99.90
13052;DHT22;6592;47.484;9.726;2023-07-29T09:53:10;27.70;99.90
13052;DHT22;6592;47.484;9.726;2023-07-29T09:55:40;27.40;99.90
13052;DHT22;6592;47.484;9.726;2023-07-29T09:58:14;27.00;99.90
13052;DHT22;6592;47.484;9.726;2023-07-29T10:00:47;27.00;99.90
13052;DHT22;6592;47.484;9.726;2023-07-29T10:03:17;27.50;99.90
13052;DHT22;6592;47.484;9.726;2023-07-29T10:05:49;27.60;99.90
13052;DHT22;6592;47.484;9.726;2023-07-29T10:08:19;28.30;99.90
13052;DHT22;6592;47.484;9.726;2023-07-29T10:10:49;28.80;99.90
13052;DHT22;6592;47.484;9.726;2023-07-29T10:13:22;28.60;99.90
13052;DHT22;6592;47.484;9.726;2023-07-29T10:15:53;28.90;99.90
13052;DHT22;6592;47.484;9.726;2023-07-29T10:18:24;29.70;99.90
13052;DHT22;6592;47.484;9.726;2023-07-29T10:20:57;30.20;99.90
13052;DHT22;6592;47.484;9.726;2023-07-29T10:23:29;30.10;99.90
13052;DHT22;6592;47.484;9.726;2023-07-29T10:26:03;31.20;99.90
13052;DHT22;6592;47.484;9.726;2023-07-29T10:28:40;32.40;99.90
13052;DHT22;6592;47.484;9.726;2023-07-29T10:31:09;32.70;99.90
13052;DHT22;6592;47.484;9.726;2023-07-29T10:33:39;33.10;99.90
13052;DHT22;6592;47.484;9.726;2023-07-29T10:36:10;32.10;99.90
13052;DHT22;6592;47.484;9.726;2023-07-29T10:38:41;31.20;99.90
13052;DHT22;6592;47.484;9.726;2023-07-29T10:41:09;30.40;99.90
13052;DHT22;6592;47.484;9.726;2023-07-29T10:43:38;29.90;99.90
13052;DHT22;6592;47.484;9.726;2023-07-29T10:46:18;29.70;99.90
13052;DHT22;6592;47.484;9.726;2023-07-29T10:48:53;29.10;99.90
13052;DHT22;6592;47.484;9.726;2023-07-29T10:51:26;29.00;99.90
13052;DHT22;6592;47.484;9.726;2023-07-29T10:54:00;29.10;99.90
13052;DHT22;6592;47.484;9.726;2023-07-29T10:56:31;28.80;99.90
13052;DHT22;6592;47.484;9.726;2023-07-29T10:59:31;29.00;99.90
13052;DHT22;6592;47.484;9.726;2023-07-29T11:02:01;29.10;99.90
13052;DHT22;6592;47.484;9.726;2023-07-29T11:04:30;29.20;99.90
13052;DHT22;6592;47.484;9.726;2023-07-29T11:07:43;29.20;99.90
13052;DHT22;6592;47.484;9.726;2023-07-29T11:10:13;29.00;99.90
13052;DHT22;6592;47.484;9.726;2023-07-29T11:12:44;28.90;99.90
13052;DHT22;6592;47.484;9.726;2023-07-29T11:15:18;28.80;99.90
13052;DHT22;6592;47.484;9.726;2023-07-29T11:17:50;28.80;99.90
13052;DHT22;6592;47.484;9.726;2023-07-29T11:20:20;29.20;99.90
13052;DHT22;6592;47.484;9.726;2023-07-29T11:22:55;29.70;99.90
13052;DHT22;6592;47.484;9.726;2023-07-29T11:25:26;30.70;99.90
13052;DHT22;6592;47.484;9.726;2023-07-29T11:27:57;32.10;99.90
13052;DHT22;6592;47.484;9.726;2023-07-29T11:30:29;33.40;99.90
13052;DHT22;6592;47.484;9.726;2023-07-29T11:33:02;34.40;99.90
13052;DHT22;6592;47.484;9.726;2023-07-29T11:35:32;35.20;99.90
13052;DHT22;6592;47.484;9.726;2023-07-29T11:38:03;35.60;99.90
13052;DHT22;6592;47.484;9.726;2023-07-29T11:40:32;36.00;99.90
13052;DHT22;6592;47.484;9.726;2023-07-29T11:43:05;36.30;99.90
13052;DHT22;6592;47.484;9.726;2023-07-29T11:45:35;36.30;99.90
13052;DHT22;6592;47.484;9.726;2023-07-29T11:48:18;36.30;99.90
13052;DHT22;6592;47.484;9.726;2023-07-29T11:50:47;36.20;99.90
13052;DHT22;6592;47.484;9.726;2023-07-29T11:53:17;35.90;99.90
13052;DHT22;6592;47.484;9.726;2023-07-29T11:55:50;36.00;99.90
13052;DHT22;6592;47.484;9.726;2023-07-29T11:58:21;35.90;99.90
13052;DHT22;6592;47.484;9.726;2023-07-29T12:00:51;35.80;99.90
13052;DHT22;6592;47.484;9.726;2023-07-29T12:03:22;35.50;99.90
13052;DHT22;6592;47.484;9.726;2023-07-29T12:05:55;35.10;99.90
13052;DHT22;6592;47.484;9.726;2023-07-29T12:08:26;34.70;99.90
13052;DHT22;6592;47.484;9.726;2023-07-29T12:10:57;34.50;99.90
13052;DHT22;6592;47.484;9.726;2023-07-29T12:13:26;34.20;99.90
13052;DHT22;6592;47.484;9.726;2023-07-29T12:16:01;33.80;99.90
13052;DHT22;6592;47.484;9.726;2023-07-29T12:18:32;33.20;99.90
13052;DHT22;6592;47.484;9.726;2023-07-29T12:21:01;32.70;99.90
13052;DHT22;6592;47.484;9.726;2023-07-29T12:23:33;32.20;99.90
13052;DHT22;6592;47.484;9.726;2023-07-29T12:26:02;31.70;99.90
13052;DHT22;6592;47.484;9.726;2023-07-29T12:28:30;31.30;99.90
13052;DHT22;6592;47.484;9.726;2023-07-29T12:30:59;30.80;99.90
13052;DHT22;6592;47.484;9.726;2023-07-29T12:33:30;30.30;99.90
13052;DHT22;6592;47.484;9.726;2023-07-29T12:36:03;29.80;99.90
13052;DHT22;6592;47.484;9.726;2023-07-29T12:38:34;29.30;99.90
13052;DHT22;6592;47.484;9.726;2023-07-29T12:41:04;28.80;99.90
13052;DHT22;6592;47.484;9.726;2023-07-29T12:43:34;28.40;99.90
13052;DHT22;6592;47.484;9.726;2023-07-29T12:46:06;28.10;99.90
13052;DHT22;6592;47.484;9.726;2023-07-29T12:48:35;27.80;99.90
13052;DHT22;6592;47.484;9.726;2023-07-29T12:51:04;27.30;99.90
13052;DHT22;6592;47.484;9.726;2023-07-29T12:53:40;27.00;99.90
13052;DHT22;6592;47.484;9.726;2023-07-29T12:56:09;26.60;99.90
13052;DHT22;6592;47.484;9.726;2023-07-29T12:58:41;26.10;99.90
13052;DHT22;6592;47.484;9.726;2023-07-29T13:01:11;25.90;99.90
13052;DHT22;6592;47.484;9.726;2023-07-29T13:03:44;25.70;99.90
13052;DHT22;6592;47.484;9.726;2023-07-29T13:06:14;25.50;99.90
13052;DHT22;6592;47.484;9.726;2023-07-29T13:08:46;25.30;99.90
13052;DHT22;6592;47.484;9.726;2023-07-29T13:11:16;25.20;99.90
13052;DHT22;6592;47.484;9.726;2023-07-29T13:13:45;25.10;99.90
13052;DHT22;6592;47.484;9.726;2023-07-29T13:16:15;25.00;99.90
13052;DHT22;6592;47.484;9.726;2023-07-29T13:18:44;24.80;99.90
13052;DHT22;6592;47.484;9.726;2023-07-29T13:21:13;24.50;99.90
13052;DHT22;6592;47.484;9.726;2023-07-29T13:23:43;24.10;99.90
13052;DHT22;6592;47.484;9.726;2023-07-29T13:26:14;24.00;99.90
13052;DHT22;6592;47.484;9.726;2023-07-29T13:28:42;23.90;99.90
13052;DHT22;6592;47.484;9.726;2023-07-29T13:31:12;24.00;99.90
13052;DHT22;6592;47.484;9.726;2023-07-29T13:33:41;24.30;99.90
13052;DHT22;6592;47.484;9.726;2023-07-29T13:36:11;24.40;99.90
13052;DHT22;6592;47.484;9.726;2023-07-29T13:38:41;24.50;99.90
13052;DHT22;6592;47.484;9.726;2023-07-29T13:41:11;24.50;99.90
13052;DHT22;6592;47.484;9.726;2023-07-29T13:43:40;24.30;99.90
13052;DHT22;6592;47.484;9.726;2023-07-29T13:46:13;24.20;99.90
13052;DHT22;6592;47.484;9.726;2023-07-29T13:48:42;24.10;99.90
13052;DHT22;6592;47.484;9.726;2023-07-29T13:51:12;24.00;99.90
13052;DHT22;6592;47.484;9.726;2023-07-29T13:53:41;23.80;99.90
13052;DHT22;6592;47.484;9.726;2023-07-29T13:56:12;23.70;99.90
13052;DHT22;6592;47.484;9.726;2023-07-29T13:58:40;23.40;99.90
13052;DHT22;6592;47.484;9.726;2023-07-29T14:01:10;23.30;99.90
13052;DHT22;6592;47.484;9.726;2023-07-29T14:03:39;23.30;99.90
13052;DHT22;6592;47.484;9.726;2023-07-29T14:06:08;23.20;99.90
13052;DHT22;6592;47.484;9.726;2023-07-29T14:08:37;23.30;99.90
13052;DHT22;6592;47.484;9.726;2023-07-29T14:11:08;23.20;99.90
13052;DHT22;6592;47.484;9.726;2023-07-29T14:13:40;22.90;99.90
13052;DHT22;6592;47.484;9.726;2023-07-29T14:16:09;22.80;99.90
13052;DHT22;6592;47.484;9.726;2023-07-29T14:18:38;22.50;99.90
13052;DHT22;6592;47.484;9.726;2023-07-29T14:21:07;22.40;99.90
13052;DHT22;6592;47.484;9.726;2023-07-29T14:23:35;22.20;99.90
13052;DHT22;6592;47.484;9.726;2023-07-29T14:26:04;21.90;99.90
13052;DHT22;6592;47.484;9.726;2023-07-29T14:28:36;21.50;99.90
13052;DHT22;6592;47.484;9.726;2023-07-29T14:31:06;21.20;99.90
13052;DHT22;6592;47.484;9.726;2023-07-29T14:33:35;20.90;99.90
13052;DHT22;6592;47.484;9.726;2023-07-29T14:36:04;20.60;99.90
13052;DHT22;6592;47.484;9.726;2023-07-29T14:38:34;20.30;99.90
13052;DHT22;6592;47.484;9.726;2023-07-29T14:41:04;20.10;99.90
13052;DHT22;6592;47.484;9.726;2023-07-29T14:43:35;19.90;99.90
13052;DHT22;6592;47.484;9.726;2023-07-29T14:46:05;19.90;99.90
13052;DHT22;6592;47.484;9.726;2023-07-29T14:48:34;19.60;99.90
13052;DHT22;6592;47.484;9.726;2023-07-29T14:51:03;19.40;99.90
13052;DHT22;6592;47.484;9.726;2023-07-29T14:53:32;19.40;99.90
13052;DHT22;6592;47.484;9.726;2023-07-29T14:56:00;19.30;99.90
13052;DHT22;6592;47.484;9.726;2023-07-29T14:58:29;19.30;99.90
13052;DHT22;6592;47.484;9.726;2023-07-29T15:00:58;19.20;99.90
13052;DHT22;6592;47.484;9.726;2023-07-29T15:03:28;19.10;99.90
13052;DHT22;6592;47.484;9.726;2023-07-29T15:05:57;19.10;99.90
13052;DHT22;6592;47.484;9.726;2023-07-29T15:08:29;19.00;99.90
13052;DHT22;6592;47.484;9.726;2023-07-29T15:10:58;19.00;99.90
13052;DHT22;6592;47.484;9.726;2023-07-29T15:13:26;19.10;99.90
13052;DHT22;6592;47.484;9.726;2023-07-29T15:15:56;19.10;99.90
13052;DHT22;6592;47.484;9.726;2023-07-29T15:18:25;19.20;99.90
13052;DHT22;6592;47.484;9.726;2023-07-29T15:20:58;19.40;99.90
13052;DHT22;6592;47.484;9.726;2023-07-29T15:23:29;19.40;99.90
13052;DHT22;6592;47.484;9.726;2023-07-29T15:25:58;19.40;99.90
13052;DHT22;6592;47.484;9.726;2023-07-29T15:28:27;19.40;99.90
13052;DHT22;6592;47.484;9.726;2023-07-29T15:30:56;19.40;99.90
13052;DHT22;6592;47.484;9.726;2023-07-29T15:33:25;19.50;99.90
13052;DHT22;6592;47.484;9.726;2023-07-29T15:35:54;19.60;99.90
13052;DHT22;6592;47.484;9.726;2023-07-29T15:38:24;19.70;99.90
13052;DHT22;6592;47.484;9.726;2023-07-29T15:40:54;19.70;99.90
13052;DHT22;6592;47.484;9.726;2023-07-29T15:43:23;19.80;99.90
13052;DHT22;6592;47.484;9.726;2023-07-29T15:45:51;19.80;99.90
13052;DHT22;6592;47.484;9.726;2023-07-29T15:48:21;19.90;99.90
13052;DHT22;6592;47.484;9.726;2023-07-29T15:50:50;20.00;99.90
13052;DHT22;6592;47.484;9.726;2023-07-29T15:53:19;20.00;99.90
13052;DHT22;6592;47.484;9.726;2023-07-29T15:55:50;20.00;99.90
13052;DHT22;6592;47.484;9.726;2023-07-29T15:58:19;20.10;99.90
13052;DHT22;6592;47.484;9.726;2023-07-29T16:00:48;20.10;99.90
13052;DHT22;6592;47.484;9.726;2023-07-29T16:03:17;20.10;99.90